Time;durP1;ratioP1;P1;durP2;ratioP2;P2;SDS_P1;SDS_P2;PMS_P1;PMS_P2;Temp;Humidity;BMP_temperature;BMP_pressure;BME280_temperature;BME280_humidity;BME280_pressure;Samples;Min_cycle;Max_cycle;Signal;HPM_P1;HPM_P2
2021/01/15 00:01:23;;;;;;;15.80;10.58;;;;;;;-2.69;77.80;98191.76;1822028;78;21044;-63
2021/01/15 00:03:51;;;;;;;17.37;10.93;;;;;;;-2.77;78.09;98201.56;1809483;79;21151;-62
2021/01/15 00:06:22;;;;;;;14.85;9.55;;;;;;;-2.80;78.41;98204.59;1822075;78;21207;-62
2021/01/15 00:08:51;;;;;;;14.90;10.03;;;;;;;-2.81;78.30;98215.63;1822056;78;21122;-62
2021/01/15 00:11:26;;;;;;;14.23;9.45;;;;;;;-2.84;78.14;98213.95;1822082;78;21083;-63
2021/01/15 00:13:53;;;;;;;18.45;11.57;;;;;;;-2.86;78.05;98218.20;1809474;79;21044;-62
2021/01/15 00:16:32;;;;;;;14.10;9.88;;;;;;;-2.89;78.11;98214.83;1822120;78;21115;-62
2021/01/15 00:19:01;;;;;;;16.60;9.70;;;;;;;-2.91;78.27;98217.81;1809587;79;21185;-62
2021/01/15 00:21:32;;;;;;;16.27;10.60;;;;;;;-2.93;78.32;98228.42;1822037;78;21127;-62
2021/01/15 00:24:03;;;;;;;13.22;8.93;;;;;;;-2.93;78.40;98223.34;1809469;79;21102;-62
2021/01/15 00:26:32;;;;;;;13.38;9.43;;;;;;;-2.93;78.47;98228.00;1808632;79;21119;-62
2021/01/15 00:28:59;;;;;;;13.18;9.38;;;;;;;-2.90;78.46;98229.25;1822264;78;21059;-62
2021/01/15 00:31:33;;;;;;;16.57;10.20;;;;;;;-2.89;78.35;98225.85;1809733;79;22343;-62
2021/01/15 00:34:03;;;;;;;18.53;10.30;;;;;;;-2.85;78.26;98222.44;1822493;78;21170;-62
2021/01/15 00:36:31;;;;;;;15.88;10.08;;;;;;;-2.83;78.26;98228.36;1809603;79;21320;-61
2021/01/15 00:38:58;;;;;;;16.10;9.65;;;;;;;-2.82;78.32;98228.78;1822268;78;21139;-62
2021/01/15 00:41:26;;;;;;;15.90;9.83;;;;;;;-2.82;78.34;98231.32;1808714;79;21072;-63
2021/01/15 00:43:53;;;;;;;15.75;9.90;;;;;;;-2.81;78.54;98230.47;1822212;78;21337;-62
2021/01/15 00:46:31;;;;;;;14.47;9.53;;;;;;;-2.81;78.54;98229.19;1822295;78;21557;-62
2021/01/15 00:49:05;;;;;;;17.37;10.63;;;;;;;-2.79;78.62;98242.72;1806464;79;21115;-62
2021/01/15 00:51:33;;;;;;;13.55;9.23;;;;;;;-2.80;78.64;98232.13;1822276;78;21480;-62
2021/01/15 00:54:03;;;;;;;15.05;9.68;;;;;;;-2.81;78.54;98230.47;1822221;78;21068;-63
2021/01/15 00:56:31;;;;;;;12.60;9.43;;;;;;;-2.83;78.71;98229.63;1806561;79;22044;-63
2021/01/15 00:58:59;;;;;;;12.37;9.28;;;;;;;-2.84;78.90;98231.75;1822190;78;21126;-62
2021/01/15 01:01:29;;;;;;;12.37;9.18;;;;;;;-2.85;78.96;98235.16;1806313;79;21139;-62
2021/01/15 01:03:57;;;;;;;15.70;9.28;;;;;;;-2.85;79.09;98242.79;1822273;78;21036;-63
2021/01/15 01:06:24;;;;;;;12.88;9.53;;;;;;;-2.88;79.30;98233.91;1806487;79;21115;-61
2021/01/15 01:08:52;;;;;;;16.05;10.32;;;;;;;-2.85;79.31;98237.70;1822189;78;21374;-63
2021/01/15 01:11:21;;;;;;;16.50;10.00;;;;;;;-2.85;79.30;98240.25;1806443;79;21103;-63
2021/01/15 01:13:51;;;;;;;12.78;8.83;;;;;;;-2.83;79.45;98250.41;1822210;78;21123;-63
2021/01/15 01:16:20;;;;;;;15.88;8.40;;;;;;;-2.78;79.38;98247.37;1806478;79;21151;-62
2021/01/15 01:18:48;;;;;;;15.30;9.55;;;;;;;-2.77;79.36;98250.34;1822304;78;21639;-62
2021/01/15 01:21:17;;;;;;;16.32;9.68;;;;;;;-2.78;79.36;98249.92;1806458;79;21202;-62
2021/01/15 01:23:45;;;;;;;13.15;9.78;;;;;;;-2.79;79.33;98255.87;1822155;78;21055;-62
2021/01/15 01:26:12;;;;;;;16.15;10.10;;;;;;;-2.81;79.09;98254.64;1822189;78;21063;-62
2021/01/15 01:28:42;;;;;;;13.18;7.97;;;;;;;-2.84;79.27;98263.56;1806547;79;21536;-62
2021/01/15 01:31:10;;;;;;;12.60;8.80;;;;;;;-2.87;79.05;98261.03;1822175;78;21107;-62
2021/01/15 01:33:38;;;;;;;12.60;8.30;;;;;;;-2.91;79.06;98257.25;1806451;79;21197;-62
2021/01/15 01:36:07;;;;;;;12.25;8.35;;;;;;;-2.94;78.93;98254.72;1822159;78;21087;-61
2021/01/15 01:38:35;;;;;;;12.23;7.72;;;;;;;-3.00;78.53;98253.52;1822183;78;21100;-61
2021/01/15 01:41:03;;;;;;;12.10;8.40;;;;;;;-3.16;78.39;98256.13;1806405;79;21075;-62
2021/01/15 01:43:31;;;;;;;12.50;7.92;;;;;;;-3.26;78.69;98259.60;1822046;78;21110;-62
2021/01/15 01:46:02;;;;;;;10.75;7.50;;;;;;;-3.33;78.68;98262.17;1822196;78;21368;-62
2021/01/15 01:48:30;;;;;;;11.25;8.03;;;;;;;-3.37;78.59;98266.85;1822122;78;21127;-62
2021/01/15 01:50:57;;;;;;;12.60;8.53;;;;;;;-3.41;78.58;98270.29;1806399;79;21139;-62
2021/01/15 01:53:30;;;;;;;12.98;8.38;;;;;;;-3.45;78.59;98273.27;1822190;78;21059;-62
2021/01/15 01:56:02;;;;;;;11.88;7.65;;;;;;;-3.49;78.71;98275.40;1822426;78;21150;-62
2021/01/15 01:58:31;;;;;;;10.78;7.83;;;;;;;-3.55;78.44;98272.45;1822327;78;21377;-62
2021/01/15 02:01:04;;;;;;;11.63;8.10;;;;;;;-3.59;78.68;98277.55;1822071;78;21154;-62
2021/01/15 02:03:32;;;;;;;14.75;9.03;;;;;;;-3.58;78.82;98275.42;1822178;78;21044;-63
2021/01/15 02:06:02;;;;;;;12.75;8.95;;;;;;;-3.53;79.00;98279.64;1822161;78;21103;-62
2021/01/15 02:08:30;;;;;;;11.90;7.65;;;;;;;-3.50;78.69;98280.06;1822163;78;21096;-62
2021/01/15 02:11:12;;;;;;;15.40;8.68;;;;;;;-3.51;78.27;98282.19;1806429;79;21205;-62
2021/01/15 02:14:03;;;;;;;10.25;6.72;;;;;;;-3.55;78.16;98288.13;1806413;78;21571;-63
2021/01/15 02:16:30;;;;;;;9.53;6.67;;;;;;;-3.59;77.50;98290.25;1822097;78;21135;-63
2021/01/15 02:19:25;;;;;;;9.98;6.30;;;;;;;-3.68;77.02;98289.88;1792438;78;21560;-63
2021/01/15 02:22:31;;;;;;;9.10;6.10;;;;;;;-3.74;76.53;98293.70;1705888;84;21089;-63
2021/01/15 02:25:21;;;;;;;10.58;7.40;;;;;;;-3.84;76.81;98289.09;1705849;84;21387;-63
2021/01/15 02:28:18;;;;;;;10.50;6.67;;;;;;;-3.92;77.12;98300.96;1769320;81;21916;-61
2021/01/15 02:31:26;;;;;;;10.05;6.75;;;;;;;-3.90;77.78;98299.69;1769406;81;21594;-62
2021/01/15 02:34:09;;;;;;;9.88;6.58;;;;;;;-3.87;77.63;98303.49;1769365;81;21059;-62
2021/01/15 02:37:10;;;;;;;12.07;7.35;;;;;;;-3.87;77.73;98300.95;1748570;81;21137;-62
2021/01/15 02:40:00;;;;;;;11.18;7.53;;;;;;;-3.85;77.72;98310.27;1769396;81;21149;-62
2021/01/15 02:42:31;;;;;;;11.03;7.22;;;;;;;-3.80;77.74;98318.30;1769330;81;21130;-62
2021/01/15 02:44:59;;;;;;;10.35;6.83;;;;;;;-3.83;77.51;98317.89;1769418;81;21146;-62
2021/01/15 02:47:50;;;;;;;10.48;6.85;;;;;;;-3.87;77.47;98314.92;1769365;81;21123;-62
2021/01/15 02:50:23;;;;;;;9.53;6.87;;;;;;;-3.88;77.65;98325.94;1769092;81;21150;-62
2021/01/15 02:52:51;;;;;;;11.22;7.28;;;;;;;-3.90;77.75;98325.09;1769279;81;21332;-62
2021/01/15 02:55:19;;;;;;;14.50;8.63;;;;;;;-3.90;77.83;98329.75;1769166;81;21131;-62
2021/01/15 02:57:46;;;;;;;16.45;10.13;;;;;;;-3.88;77.91;98338.21;1769152;81;21575;-62
2021/01/15 03:00:18;;;;;;;15.72;7.67;;;;;;;-3.89;77.27;98345.83;1769082;81;21087;-62
2021/01/15 03:03:13;;;;;;;8.83;6.03;;;;;;;-3.93;77.30;98356.84;1769222;81;21162;-63
2021/01/15 03:05:56;;;;;;;12.28;6.90;;;;;;;-3.93;77.37;98350.49;1769157;81;21547;-61
2021/01/15 03:08:24;;;;;;;7.55;5.15;;;;;;;-3.92;76.88;98353.45;1769091;81;21078;-62
2021/01/15 03:10:53;;;;;;;9.05;6.15;;;;;;;-3.95;76.47;98359.80;1716717;81;21468;-62
2021/01/15 03:13:22;;;;;;;8.33;5.25;;;;;;;-4.02;76.38;98358.14;1769166;81;21496;-62
2021/01/15 03:15:49;;;;;;;10.68;6.00;;;;;;;-4.10;76.00;98352.21;1769121;81;21087;-64
2021/01/15 03:18:18;;;;;;;9.65;5.72;;;;;;;-4.18;76.19;98347.98;1769083;81;21215;-62
2021/01/15 03:20:45;;;;;;;7.70;5.08;;;;;;;-4.24;75.99;98355.63;1760252;81;21179;-63
2021/01/15 03:23:12;;;;;;;6.20;4.58;;;;;;;-4.32;76.02;98354.77;1741984;82;21073;-63
2021/01/15 03:25:40;;;;;;;7.42;6.42;;;;;;;-4.42;76.05;98355.63;1741985;82;21068;-62
2021/01/15 03:28:08;;;;;;;9.30;5.60;;;;;;;-4.50;76.33;98354.77;1742190;82;21164;-63
2021/01/15 03:30:36;;;;;;;6.47;5.12;;;;;;;-4.55;76.74;98364.06;1742016;82;21389;-62
2021/01/15 03:33:04;;;;;;;8.70;5.67;;;;;;;-4.57;76.60;98367.86;1741969;82;21077;-62
2021/01/15 03:35:33;;;;;;;7.30;5.00;;;;;;;-4.59;75.97;98363.63;1742005;82;21056;-62
2021/01/15 03:38:09;;;;;;;5.95;4.00;;;;;;;-4.66;75.19;98364.06;1741987;82;21088;-62
2021/01/15 03:40:42;;;;;;;6.80;5.08;;;;;;;-4.79;74.46;98373.75;1742046;82;21072;-62
2021/01/15 03:43:13;;;;;;;6.25;4.12;;;;;;;-4.93;74.49;98373.73;1742015;82;21386;-62
2021/01/15 03:45:42;;;;;;;6.65;4.42;;;;;;;-5.01;75.00;98385.56;1741967;82;21069;-62
2021/01/15 03:48:11;;;;;;;6.83;4.80;;;;;;;-5.05;74.68;98377.93;1742106;82;21525;-62
2021/01/15 03:50:39;;;;;;;8.18;5.45;;;;;;;-5.11;74.70;98377.91;1741925;82;21156;-62
2021/01/15 03:53:06;;;;;;;8.65;5.95;;;;;;;-5.21;74.38;98381.69;1742010;82;21219;-62
2021/01/15 03:55:34;;;;;;;7.87;5.22;;;;;;;-5.29;74.63;98383.34;1741976;82;21513;-62
2021/01/15 03:58:03;;;;;;;7.83;4.97;;;;;;;-5.31;74.71;98386.28;1741968;82;21072;-62
2021/01/15 04:00:30;;;;;;;10.93;6.10;;;;;;;-5.29;74.57;98391.36;1741993;82;21057;-62
2021/01/15 04:02:58;;;;;;;8.43;5.30;;;;;;;-5.32;74.68;98388.80;1742171;82;21580;-62
2021/01/15 04:05:26;;;;;;;11.40;5.85;;;;;;;-5.33;74.89;98389.64;1742138;82;21128;-62
2021/01/15 04:07:53;;;;;;;12.82;7.17;;;;;;;-5.30;74.97;98387.98;1742162;82;21401;-62
2021/01/15 04:10:21;;;;;;;10.13;5.85;;;;;;;-5.25;74.78;98390.53;1742107;82;21073;-62
2021/01/15 04:12:49;;;;;;;9.65;5.42;;;;;;;-5.18;74.87;98392.66;1742151;82;21119;-62
2021/01/15 04:15:17;;;;;;;7.28;5.22;;;;;;;-5.15;74.63;98394.78;1742133;81;21163;-62
2021/01/15 04:17:45;;;;;;;9.58;6.05;;;;;;;-5.15;74.67;98393.94;1742094;82;21159;-63
2021/01/15 04:20:14;;;;;;;9.58;5.90;;;;;;;-5.19;74.58;98399.41;1742000;81;21203;-62
2021/01/15 04:22:46;;;;;;;11.50;6.62;;;;;;;-5.21;74.79;98403.23;1742076;82;21088;-62
2021/01/15 04:25:14;;;;;;;9.98;6.08;;;;;;;-5.25;74.78;98410.39;1742308;82;21068;-62
2021/01/15 04:27:42;;;;;;;8.83;5.90;;;;;;;-5.24;74.85;98409.97;1742141;82;21076;-62
2021/01/15 04:30:14;;;;;;;8.18;5.37;;;;;;;-5.30;74.83;98409.94;1742203;82;21077;-62
2021/01/15 04:32:47;;;;;;;8.63;5.87;;;;;;;-5.37;75.13;98413.27;1742309;82;21210;-62
2021/01/15 04:35:16;;;;;;;10.25;6.30;;;;;;;-5.42;75.40;98414.54;1742226;82;21072;-62
2021/01/15 04:37:43;;;;;;;8.73;5.83;;;;;;;-5.42;75.40;98417.49;1742200;82;21056;-62
2021/01/15 04:40:12;;;;;;;9.40;5.70;;;;;;;-5.42;75.65;98419.61;1742116;82;21065;-62
2021/01/15 04:42:42;;;;;;;7.60;5.35;;;;;;;-5.42;75.66;98417.49;1742056;82;21052;-62
2021/01/15 04:45:12;;;;;;;9.20;5.65;;;;;;;-5.47;75.69;98417.88;1742241;82;22267;-62
2021/01/15 04:47:46;;;;;;;10.60;5.70;;;;;;;-5.52;75.83;98422.91;1742148;82;21096;-62
2021/01/15 04:50:15;;;;;;;8.98;6.08;;;;;;;-5.59;76.04;98424.56;1742111;82;21080;-61
2021/01/15 04:52:53;;;;;;;12.43;7.05;;;;;;;-5.60;76.42;98425.42;1742197;82;21092;-62
2021/01/15 04:55:22;;;;;;;8.30;5.50;;;;;;;-5.63;76.58;98424.14;1742159;82;21084;-61
2021/01/15 04:57:54;;;;;;;12.65;7.42;;;;;;;-5.62;76.85;98434.70;1742227;81;22378;-61
2021/01/15 05:00:26;;;;;;;9.00;5.62;;;;;;;-5.61;76.60;98436.39;1742173;82;21105;-62
2021/01/15 05:02:53;;;;;;;10.00;5.85;;;;;;;-5.64;76.29;98439.33;1742139;82;21468;-62
2021/01/15 05:05:26;;;;;;;7.92;5.12;;;;;;;-5.64;76.45;98440.59;1742114;82;21068;-62
2021/01/15 05:08:09;;;;;;;;;;;;;;;-5.63;76.32;98445.67;1744801;82;21520;-62
2021/01/15 05:10:40;;;;;;;8.33;5.30;;;;;;;-5.63;76.18;98450.73;1742290;82;21461;-62
2021/01/15 05:13:11;;;;;;;7.30;4.90;;;;;;;-5.63;76.27;98459.59;1742074;82;21151;-61
2021/01/15 05:15:43;;;;;;;7.80;4.97;;;;;;;-5.69;75.53;98454.91;1742260;82;21084;-61
2021/01/15 05:18:11;;;;;;;9.80;5.25;;;;;;;-5.79;75.27;98457.77;1742080;82;21084;-62
2021/01/15 05:20:39;;;;;;;8.48;4.70;;;;;;;-5.84;75.26;98453.12;1744605;81;21667;-61
2021/01/15 05:23:08;;;;;;;11.33;5.50;;;;;;;-5.89;74.96;98458.59;1758044;81;22010;-62
2021/01/15 05:25:40;;;;;;;8.80;4.90;;;;;;;-5.98;75.04;98456.83;1758016;81;21194;-62
2021/01/15 05:28:07;;;;;;;8.40;5.17;;;;;;;-6.00;75.05;98462.73;1757832;81;21170;-62
2021/01/15 05:30:38;;;;;;;9.60;5.45;;;;;;;-6.02;74.96;98463.14;1758052;81;21108;-63
2021/01/15 05:33:12;;;;;;;9.30;5.25;;;;;;;-6.09;75.00;98469.83;1758120;81;21087;-61
2021/01/15 05:35:46;;;;;;;8.40;5.20;;;;;;;-6.15;75.19;98476.09;1758053;81;23616;-62
2021/01/15 05:38:15;;;;;;;7.67;5.42;;;;;;;-6.15;74.98;98484.09;1758135;81;21084;-61
2021/01/15 05:40:55;;;;;;;8.58;5.78;;;;;;;-6.19;74.89;98487.02;1758150;81;21060;-61
2021/01/15 05:43:30;;;;;;;9.63;5.95;;;;;;;-6.20;74.52;98482.82;1758065;81;21218;-61
2021/01/15 05:46:16;;;;;;;9.98;6.42;;;;;;;-6.29;74.08;98486.52;1734709;82;21178;-62
2021/01/15 05:48:46;;;;;;;10.55;6.65;;;;;;;-6.37;74.52;98491.91;1758057;81;21481;-61
2021/01/15 05:51:28;;;;;;;8.33;5.55;;;;;;;-6.35;74.89;98496.56;1758104;81;21496;-62
2021/01/15 05:53:58;;;;;;;9.85;6.45;;;;;;;-6.30;74.46;98498.31;1758149;81;21103;-62
2021/01/15 05:56:45;;;;;;;9.13;5.90;;;;;;;-6.27;74.25;98509.73;1757831;81;21138;-62
2021/01/15 05:59:19;;;;;;;11.00;6.03;;;;;;;-6.24;74.00;98508.92;1758102;81;21067;-62
2021/01/15 06:01:54;;;;;;;9.95;6.85;;;;;;;-6.22;73.51;98514.85;1758138;81;22271;-62
2021/01/15 06:04:35;;;;;;;8.53;5.62;;;;;;;-6.21;74.04;98521.61;1752885;81;21163;-63
2021/01/15 06:07:15;;;;;;;9.78;6.55;;;;;;;-6.16;73.49;98521.63;1756047;81;21671;-64
2021/01/15 06:09:45;;;;;;;14.78;9.38;;;;;;;-6.15;73.89;98524.17;1755321;80;21206;-65
2021/01/15 06:12:18;;;;;;;28.42;15.95;;;;;;;-6.08;73.99;98539.02;1766499;81;21233;-65
2021/01/15 06:14:50;;;;;;;13.40;7.75;;;;;;;-6.05;73.83;98541.58;1766987;81;21381;-69
2021/01/15 06:17:20;;;;;;;26.27;18.12;;;;;;;-6.06;73.57;98548.33;1764336;79;22490;-64
2021/01/15 06:19:58;;;;;;;18.17;13.35;;;;;;;-6.08;73.65;98544.92;1702922;84;21214;-62
2021/01/15 06:22:44;;;;;;;14.95;10.48;;;;;;;-6.14;73.56;98540.22;1726318;83;21167;-62
2021/01/15 06:25:32;;;;;;;14.73;10.53;;;;;;;-6.19;73.76;98540.16;1705176;84;21182;-62
2021/01/15 06:28:03;;;;;;;12.18;7.40;;;;;;;-6.18;74.18;98551.13;1728017;83;21174;-62
2021/01/15 06:30:33;;;;;;;9.00;6.03;;;;;;;-6.19;74.25;98550.28;1727839;83;21095;-63
2021/01/15 06:33:14;;;;;;;16.00;8.65;;;;;;;-6.16;74.35;98556.65;1727889;81;21117;-63
2021/01/15 06:35:44;;;;;;;17.67;9.50;;;;;;;-6.15;74.28;98548.22;1727663;83;21075;-63
2021/01/15 06:38:22;;;;;;;14.25;9.05;;;;;;;-6.12;74.44;98549.52;1698780;83;21275;-61
2021/01/15 06:40:51;;;;;;;15.32;10.50;;;;;;;-6.08;74.38;98549.14;1727662;83;21173;-62
2021/01/15 06:43:28;;;;;;;12.20;8.33;;;;;;;-6.06;74.70;98555.92;1709706;82;21622;-62
2021/01/15 06:46:02;;;;;;;10.48;7.42;;;;;;;-5.99;74.54;98556.80;1732586;82;21313;-63
2021/01/15 06:48:37;;;;;;;10.58;7.15;;;;;;;-5.96;74.49;98565.70;1767414;81;21162;-65
2021/01/15 06:51:07;;;;;;;11.88;7.97;;;;;;;-5.92;74.35;98563.63;1768321;81;21201;-65
2021/01/15 06:53:38;;;;;;;8.18;5.85;;;;;;;-5.88;74.20;98571.66;1769200;81;21363;-64
2021/01/15 06:56:07;;;;;;;10.03;6.97;;;;;;;-5.85;73.88;98572.12;1740174;82;21201;-62
2021/01/15 06:58:40;;;;;;;7.87;5.90;;;;;;;-5.84;73.88;98572.55;1740087;82;21155;-60
2021/01/15 07:01:24;;;;;;;8.53;5.53;;;;;;;-5.84;73.47;98579.73;1739897;82;21167;-62
2021/01/15 07:04:28;;;;;;;11.28;6.70;;;;;;;-5.85;73.00;98577.18;1735041;82;21083;-62
2021/01/15 07:07:14;;;;;;;9.20;5.97;;;;;;;-5.89;72.77;98575.48;1724364;83;21468;-62
2021/01/15 07:09:46;;;;;;;9.15;6.10;;;;;;;-5.91;72.94;98577.99;1735041;82;21099;-63
2021/01/15 07:12:18;;;;;;;7.92;5.90;;;;;;;-5.86;71.98;98583.08;1735294;82;21075;-65
2021/01/15 07:14:56;;;;;;;10.23;6.47;;;;;;;-5.88;71.75;98588.12;1735227;82;21655;-63
2021/01/15 07:17:36;;;;;;;10.18;5.40;;;;;;;-5.88;71.64;98588.12;1735086;82;21067;-61
2021/01/15 07:20:11;;;;;;;7.97;4.62;;;;;;;-5.83;72.07;98589.02;1735078;82;21112;-62
2021/01/15 07:22:59;;;;;;;7.50;5.08;;;;;;;-5.76;72.20;98599.63;1734726;82;21120;-61
2021/01/15 07:25:27;;;;;;;28.52;17.05;;;;;;;-5.69;72.36;98593.79;1734758;82;21556;-61
2021/01/15 07:27:56;;;;;;;31.30;17.23;;;;;;;-5.58;72.65;98591.33;1735112;82;21607;-63
2021/01/15 07:30:29;;;;;;;25.40;16.05;;;;;;;-5.48;72.72;98593.54;1735029;82;21056;-62
2021/01/15 07:33:04;;;;;;;18.35;13.05;;;;;;;-5.40;72.77;98604.18;1735045;82;21268;-62
2021/01/15 07:35:37;;;;;;;13.00;7.13;;;;;;;-5.12;72.90;98595.49;1686289;82;21107;-65
2021/01/15 07:38:15;;;;;;;10.32;6.85;;;;;;;-5.12;72.90;98595.49;1709460;82;22401;-61
2021/01/15 07:40:43;;;;;;;10.00;6.55;;;;;;;-4.91;72.71;98601.97;1738367;82;21067;-61
2021/01/15 07:43:33;;;;;;;10.80;6.70;;;;;;;-4.74;72.03;98602.06;1738363;82;21496;-62
2021/01/15 07:46:04;;;;;;;9.45;5.87;;;;;;;-4.71;71.74;98607.16;1738471;82;21277;-62
2021/01/15 07:48:32;;;;;;;9.68;6.30;;;;;;;-4.73;71.42;98602.48;1738345;82;21161;-60
2021/01/15 07:51:10;;;;;;;24.20;13.60;;;;;;;-4.67;71.04;98608.88;1738306;82;21079;-62
2021/01/15 07:53:41;;;;;;;11.80;8.48;;;;;;;-4.72;69.52;98612.65;1713014;82;21138;-65
2021/01/15 07:56:10;;;;;;;10.32;7.28;;;;;;;-4.89;69.11;98615.52;1738488;82;21141;-61
2021/01/15 07:58:45;;;;;;;9.30;5.87;;;;;;;-5.02;69.66;98612.48;1738415;82;21417;-65
2021/01/15 08:01:19;;;;;;;8.80;5.70;;;;;;;-5.04;69.70;98618.80;1738339;82;21110;-63
2021/01/15 08:03:54;;;;;;;8.53;5.85;;;;;;;-5.04;69.00;98617.95;1738460;82;21142;-63
2021/01/15 08:06:23;;;;;;;7.30;5.30;;;;;;;-5.09;68.81;98631.86;1738547;82;21087;-62
2021/01/15 08:09:05;;;;;;;9.55;6.03;;;;;;;-5.15;68.70;98630.54;1738479;82;21568;-62
2021/01/15 08:11:35;;;;;;;12.13;7.80;;;;;;;-5.14;69.50;98633.50;1737632;82;21454;-64
2021/01/15 08:14:32;;;;;;;11.60;6.53;;;;;;;-5.01;69.42;98634.47;1738305;82;21173;-62
2021/01/15 08:17:01;;;;;;;9.10;6.22;;;;;;;-4.96;68.94;98637.44;1738335;82;21095;-63
2021/01/15 08:19:36;;;;;;;9.88;6.47;;;;;;;-5.08;69.08;98633.56;1738369;82;21119;-60
2021/01/15 08:22:11;;;;;;;10.63;5.62;;;;;;;-5.08;69.59;98641.59;1738278;82;21059;-62
2021/01/15 08:24:47;;;;;;;8.50;5.65;;;;;;;-5.07;69.27;98649.63;1738454;82;22369;-62
2021/01/15 08:27:19;;;;;;;10.90;6.28;;;;;;;-5.15;68.78;98653.36;1738336;82;21519;-62
2021/01/15 08:29:50;;;;;;;8.60;5.85;;;;;;;-5.26;68.91;98657.50;1738432;82;21193;-63
2021/01/15 08:32:19;;;;;;;11.12;5.80;;;;;;;-5.33;69.32;98667.15;1738455;82;21166;-65
2021/01/15 08:34:47;;;;;;;8.30;5.35;;;;;;;-5.42;69.12;98662.87;1738286;82;21135;-62
2021/01/15 08:37:16;;;;;;;9.98;6.55;;;;;;;-5.50;69.45;98673.33;1738343;82;22805;-64
2021/01/15 08:39:53;;;;;;;11.05;5.58;;;;;;;-5.48;69.89;98674.20;1757321;81;21087;-61
2021/01/15 08:42:21;;;;;;;10.30;5.67;;;;;;;-5.43;70.28;98682.70;1768531;81;21202;-62
2021/01/15 08:44:50;;;;;;;9.40;5.72;;;;;;;-5.38;70.37;98687.38;1741237;81;21094;-61
2021/01/15 08:47:20;;;;;;;7.97;5.40;;;;;;;-5.33;70.34;98696.30;1740939;81;21223;-62
2021/01/15 08:49:56;;;;;;;7.25;5.50;;;;;;;-5.27;70.48;98693.82;1768519;81;21374;-63
2021/01/15 08:52:31;;;;;;;9.73;5.95;;;;;;;-5.23;70.23;98694.29;1768318;81;21504;-60
2021/01/15 08:55:02;;;;;;;8.95;5.83;;;;;;;-5.21;69.33;98694.73;1768969;81;21166;-61
2021/01/15 08:57:31;;;;;;;7.03;4.97;;;;;;;-5.17;69.32;98694.73;1769239;81;21131;-62
2021/01/15 09:00:23;;;;;;;9.33;6.30;;;;;;;-5.12;68.92;98699.44;1769086;81;21623;-60
2021/01/15 09:02:50;;;;;;;11.20;6.70;;;;;;;-5.07;68.71;98700.33;1768750;81;21215;-63
2021/01/15 09:05:19;;;;;;;13.15;8.10;;;;;;;-5.01;68.29;98697.44;1740797;81;21213;-63
2021/01/15 09:07:49;;;;;;;13.25;6.37;;;;;;;-4.91;67.44;98699.61;1769004;81;21087;-63
2021/01/15 09:10:17;;;;;;;9.70;6.50;;;;;;;-4.85;66.66;98699.66;1768989;81;21182;-62
2021/01/15 09:12:48;;;;;;;9.40;5.72;;;;;;;-4.78;66.74;98706.88;1768304;81;21209;-62
2021/01/15 09:15:25;;;;;;;7.10;5.03;;;;;;;-4.73;66.51;98707.77;1768797;81;22004;-62
2021/01/15 09:17:56;;;;;;;8.70;5.08;;;;;;;-4.77;65.48;98708.16;1768835;81;21071;-62
2021/01/15 09:20:24;;;;;;;10.48;6.17;;;;;;;-4.90;64.94;98712.72;1767827;81;21202;-63
2021/01/15 09:22:53;;;;;;;6.80;4.70;;;;;;;-5.02;64.89;98718.56;1758641;81;21091;-64
2021/01/15 09:25:23;;;;;;;7.65;5.58;;;;;;;-5.06;64.82;98713.02;1750281;82;21119;-62
2021/01/15 09:27:51;;;;;;;8.28;5.47;;;;;;;-5.09;64.30;98714.27;1727161;82;21367;-66
2021/01/15 09:30:20;;;;;;;8.60;5.35;;;;;;;-5.16;63.64;98715.03;1726905;82;21816;-62
2021/01/15 09:32:48;;;;;;;7.58;4.85;;;;;;;-5.17;64.40;98715.87;1750277;82;21504;-62
2021/01/15 09:35:19;;;;;;;7.50;4.75;;;;;;;-5.09;64.14;98719.75;1750058;82;21178;-64
2021/01/15 09:37:47;;;;;;;5.85;4.40;;;;;;;-5.04;63.85;98725.30;1750286;82;21540;-63
2021/01/15 09:40:16;;;;;;;7.70;5.08;;;;;;;-5.08;63.44;98722.72;1736820;82;21667;-63
2021/01/15 09:42:51;;;;;;;7.92;5.00;;;;;;;-5.17;62.74;98727.28;1734388;82;21194;-60
2021/01/15 09:45:19;;;;;;;7.33;4.62;;;;;;;-5.27;63.13;98728.89;1734525;82;21194;-62
2021/01/15 09:47:48;;;;;;;9.88;6.00;;;;;;;-5.29;63.44;98735.63;1733276;82;21166;-63
2021/01/15 09:50:18;;;;;;;6.97;4.50;;;;;;;-5.32;63.35;98734.33;1729019;82;21199;-65
2021/01/15 09:52:49;;;;;;;7.87;5.10;;;;;;;-5.31;63.25;98731.38;1729610;83;21436;-64
2021/01/15 09:55:18;;;;;;;8.98;5.00;;;;;;;-5.29;63.13;98728.02;1714651;83;21230;-61
2021/01/15 09:57:47;;;;;;;11.38;5.30;;;;;;;-5.25;63.64;98733.56;1728670;83;21202;-61
2021/01/15 10:00:19;;;;;;;9.13;5.58;;;;;;;-5.14;63.21;98738.72;1729641;82;21186;-62
2021/01/15 10:02:48;;;;;;;8.53;5.45;;;;;;;-5.15;63.26;98729.41;1729636;83;21108;-65
2021/01/15 10:05:18;;;;;;;12.85;9.05;;;;;;;-5.25;63.78;98726.38;1729535;83;21400;-64
2021/01/15 10:07:46;;;;;;;17.35;9.48;;;;;;;-5.32;64.76;98734.33;1729516;83;21182;-61
2021/01/15 10:10:15;;;;;;;10.40;6.70;;;;;;;-5.38;65.35;98741.86;1729577;83;21510;-63
2021/01/15 10:12:45;;;;;;;15.32;9.48;;;;;;;-5.42;66.13;98742.69;1729577;83;21103;-65
2021/01/15 10:15:14;;;;;;;6.97;5.12;;;;;;;-5.45;66.69;98741.38;1729399;83;21068;-64
2021/01/15 10:17:45;;;;;;;9.88;7.05;;;;;;;-5.44;66.60;98745.63;1729340;83;21388;-65
2021/01/15 10:20:16;;;;;;;11.15;6.55;;;;;;;-5.42;66.44;98746.91;1729442;82;21083;-64
2021/01/15 10:22:44;;;;;;;9.33;5.75;;;;;;;-5.45;66.78;98741.80;1722615;81;21143;-64
2021/01/15 10:25:13;;;;;;;8.35;4.83;;;;;;;-5.47;66.83;98737.13;1696965;84;21068;-65
2021/01/15 10:27:41;;;;;;;9.35;5.97;;;;;;;-5.47;66.08;98745.58;1697008;84;21104;-65
2021/01/15 10:30:11;;;;;;;10.60;4.55;;;;;;;-5.61;65.66;98748.39;1696943;84;21221;-65
2021/01/15 10:32:43;;;;;;;8.58;5.97;;;;;;;-5.84;63.80;98746.86;1701845;82;21171;-66
2021/01/15 10:35:14;;;;;;;7.75;5.95;;;;;;;-5.99;64.48;98744.15;1720213;82;21092;-64
2021/01/15 10:37:42;;;;;;;8.60;5.10;;;;;;;-6.06;63.66;98747.45;1705569;82;21207;-65
2021/01/15 10:40:13;;;;;;;7.00;4.80;;;;;;;-6.22;64.16;98749.35;1734022;82;21500;-65
2021/01/15 10:42:43;;;;;;;9.10;5.62;;;;;;;-6.35;64.53;98761.81;1742208;82;21360;-64
2021/01/15 10:45:11;;;;;;;10.68;7.15;;;;;;;-6.38;64.89;98765.56;1742185;82;21147;-65
2021/01/15 10:47:42;;;;;;;7.85;5.45;;;;;;;-6.27;65.31;98768.27;1742049;82;21120;-65
2021/01/15 10:50:14;;;;;;;9.60;4.53;;;;;;;-6.14;64.52;98762.94;1741888;81;21064;-65
2021/01/15 10:52:42;;;;;;;8.33;5.90;;;;;;;-6.12;62.86;98762.55;1742017;82;21060;-64
2021/01/15 10:55:13;;;;;;;11.97;6.50;;;;;;;-6.27;63.19;98760.67;1741976;82;21162;-65
2021/01/15 10:57:40;;;;;;;8.35;6.03;;;;;;;-6.35;63.93;98768.55;1741897;82;21599;-64
2021/01/15 11:00:11;;;;;;;8.43;5.37;;;;;;;-6.35;64.14;98760.97;1741878;82;21132;-65
2021/01/15 11:02:39;;;;;;;10.30;6.15;;;;;;;-6.31;64.68;98761.45;1742025;82;21140;-64
2021/01/15 11:05:09;;;;;;;10.60;6.70;;;;;;;-6.31;65.15;98757.24;1741877;82;21135;-66
2021/01/15 11:07:37;;;;;;;7.15;4.80;;;;;;;-6.28;65.71;98765.30;1741884;82;21381;-64
2021/01/15 11:10:07;;;;;;;6.80;4.15;;;;;;;-6.27;65.58;98765.31;1740888;82;21897;-66
2021/01/15 11:12:35;;;;;;;8.78;5.75;;;;;;;-6.35;64.72;98764.77;1740937;82;21601;-67
2021/01/15 11:15:04;;;;;;;7.08;4.35;;;;;;;-6.39;64.87;98770.19;1740711;82;21207;-65
2021/01/15 11:17:35;;;;;;;8.20;4.65;;;;;;;-6.31;63.90;98762.30;1741129;82;21135;-66
2021/01/15 11:20:08;;;;;;;9.03;6.12;;;;;;;-6.14;62.90;98756.61;1741420;82;22304;-65
2021/01/15 11:22:36;;;;;;;9.48;6.22;;;;;;;-6.00;62.58;98749.66;1740432;81;21187;-67
2021/01/15 11:25:06;;;;;;;9.58;6.00;;;;;;;-5.91;62.47;98752.28;1741797;82;21120;-65
2021/01/15 11:27:34;;;;;;;10.05;5.97;;;;;;;-5.79;61.26;98746.89;1741946;82;21526;-68
2021/01/15 11:30:05;;;;;;;12.00;4.92;;;;;;;-5.79;59.76;98755.34;1741910;82;21080;-66
2021/01/15 11:32:34;;;;;;;9.05;5.17;;;;;;;-5.88;58.75;98759.48;1725086;82;21389;-65
2021/01/15 11:35:03;;;;;;;9.48;4.92;;;;;;;-6.04;58.39;98755.92;1670438;82;21942;-65
2021/01/15 11:37:35;;;;;;;7.03;3.80;;;;;;;-6.27;57.60;98764.05;1742021;82;21203;-63
2021/01/15 11:40:06;;;;;;;6.53;3.45;;;;;;;-6.47;57.15;98764.59;1741875;82;21517;-66
2021/01/15 11:42:34;;;;;;;7.15;4.50;;;;;;;-6.61;57.14;98777.05;1739603;82;21065;-65
2021/01/15 11:45:04;;;;;;;6.12;3.92;;;;;;;-6.74;57.27;98773.45;1736740;82;21209;-67
2021/01/15 11:47:32;;;;;;;6.60;3.70;;;;;;;-6.77;57.84;98778.45;1741653;82;21137;-64
2021/01/15 11:50:01;;;;;;;5.90;3.55;;;;;;;-6.72;58.46;98773.07;1729919;82;21063;-65
2021/01/15 11:52:29;;;;;;;8.90;5.25;;;;;;;-6.75;58.18;98775.55;1729479;83;21064;-65